El Jadida, Morocco
Current Conditions -  °F | °C
As of 1:00 AM on Monday 22 Dec 2014 (Local Time) from GMMN Reporting Station
Moderate Fog Moderate Fog  
Wind Chill: 52°   Ceiling: 400
Heat Index: 52°   Visibility: 0.34mi
Dew Point: 52°   Wind: 3mph
Humidity: 100%   Direction: 90°E
Pressure: 30.3"   Gusts: NA
Location:  33.26°N, 8.51°W
Report Text: GMMN 220000Z 09003KT 0550 0400 R35R/0700N FG BKN004 SCT01611/11 Q1026 NOSIG
Loading
Personal Weather Stations






























Interactive Weather Map New forecast layout! Learn more

10-Day Weather Forecast

Advertisements
Track Severe Weather on mobile